sensor_id;sensor_type;location;lat;lon;timestamp;P1;durP1;ratioP1;P2;durP2;ratioP2
5475;SDS011;2760;50.000;9.194;2022-07-30T00:00:04;9.07;;;8.20;;
5475;SDS011;2760;50.000;9.194;2022-07-30T00:02:32;10.17;;;8.80;;
5475;SDS011;2760;50.000;9.194;2022-07-30T00:04:59;14.10;;;8.87;;
5475;SDS011;2760;50.000;9.194;2022-07-30T00:07:26;8.63;;;7.73;;
5475;SDS011;2760;50.000;9.194;2022-07-30T00:09:53;9.60;;;8.40;;
5475;SDS011;2760;50.000;9.194;2022-07-30T00:12:20;8.87;;;7.97;;
5475;SDS011;2760;50.000;9.194;2022-07-30T00:14:49;11.00;;;8.47;;
5475;SDS011;2760;50.000;9.194;2022-07-30T00:17:16;12.73;;;8.70;;
5475;SDS011;2760;50.000;9.194;2022-07-30T00:19:43;9.00;;;8.10;;
5475;SDS011;2760;50.000;9.194;2022-07-30T00:22:11;8.43;;;7.50;;
5475;SDS011;2760;50.000;9.194;2022-07-30T00:24:38;9.17;;;7.27;;
5475;SDS011;2760;50.000;9.194;2022-07-30T00:27:05;9.33;;;8.00;;
5475;SDS011;2760;50.000;9.194;2022-07-30T00:29:32;10.87;;;9.83;;
5475;SDS011;2760;50.000;9.194;2022-07-30T00:32:00;14.60;;;8.00;;
5475;SDS011;2760;50.000;9.194;2022-07-30T00:34:27;12.30;;;9.30;;
5475;SDS011;2760;50.000;9.194;2022-07-30T00:36:54;10.50;;;9.30;;
5475;SDS011;2760;50.000;9.194;2022-07-30T00:39:21;11.00;;;9.87;;
5475;SDS011;2760;50.000;9.194;2022-07-30T00:41:52;13.70;;;10.40;;
5475;SDS011;2760;50.000;9.194;2022-07-30T00:44:21;12.00;;;10.63;;
5475;SDS011;2760;50.000;9.194;2022-07-30T00:46:48;12.70;;;11.40;;
5475;SDS011;2760;50.000;9.194;2022-07-30T00:49:17;11.93;;;10.73;;
5475;SDS011;2760;50.000;9.194;2022-07-30T00:51:44;15.47;;;13.40;;
5475;SDS011;2760;50.000;9.194;2022-07-30T00:54:11;13.63;;;12.20;;
5475;SDS011;2760;50.000;9.194;2022-07-30T00:56:39;10.20;;;8.03;;
5475;SDS011;2760;50.000;9.194;2022-07-30T00:59:07;7.23;;;6.63;;
5475;SDS011;2760;50.000;9.194;2022-07-30T01:01:34;11.07;;;6.67;;
5475;SDS011;2760;50.000;9.194;2022-07-30T01:04:01;6.53;;;5.93;;
5475;SDS011;2760;50.000;9.194;2022-07-30T01:06:30;9.70;;;8.03;;
5475;SDS011;2760;50.000;9.194;2022-07-30T01:08:57;11.43;;;10.40;;
5475;SDS011;2760;50.000;9.194;2022-07-30T01:11:26;11.03;;;10.00;;
5475;SDS011;2760;50.000;9.194;2022-07-30T01:13:59;13.30;;;10.63;;
5475;SDS011;2760;50.000;9.194;2022-07-30T01:16:26;10.43;;;9.30;;
5475;SDS011;2760;50.000;9.194;2022-07-30T01:18:54;13.87;;;10.30;;
5475;SDS011;2760;50.000;9.194;2022-07-30T01:21:42;9.80;;;8.80;;
5475;SDS011;2760;50.000;9.194;2022-07-30T01:24:17;12.00;;;10.87;;
5475;SDS011;2760;50.000;9.194;2022-07-30T01:26:53;13.70;;;11.20;;
5475;SDS011;2760;50.000;9.194;2022-07-30T01:29:22;15.03;;;11.47;;
5475;SDS011;2760;50.000;9.194;2022-07-30T01:31:50;11.47;;;10.20;;
5475;SDS011;2760;50.000;9.194;2022-07-30T01:34:23;12.43;;;11.20;;
5475;SDS011;2760;50.000;9.194;2022-07-30T01:36:53;19.80;;;12.67;;
5475;SDS011;2760;50.000;9.194;2022-07-30T01:39:22;14.23;;;12.73;;
5475;SDS011;2760;50.000;9.194;2022-07-30T01:41:52;13.60;;;12.20;;
5475;SDS011;2760;50.000;9.194;2022-07-30T01:44:22;15.70;;;14.10;;
5475;SDS011;2760;50.000;9.194;2022-07-30T01:46:52;17.63;;;13.83;;
5475;SDS011;2760;50.000;9.194;2022-07-30T01:49:21;16.90;;;14.30;;
5475;SDS011;2760;50.000;9.194;2022-07-30T01:51:49;19.60;;;14.43;;
5475;SDS011;2760;50.000;9.194;2022-07-30T01:54:17;24.50;;;16.40;;
5475;SDS011;2760;50.000;9.194;2022-07-30T01:56:45;20.00;;;16.07;;
5475;SDS011;2760;50.000;9.194;2022-07-30T01:59:17;19.43;;;16.13;;
5475;SDS011;2760;50.000;9.194;2022-07-30T02:01:46;25.27;;;17.57;;
5475;SDS011;2760;50.000;9.194;2022-07-30T02:04:14;19.73;;;16.30;;
5475;SDS011;2760;50.000;9.194;2022-07-30T02:06:43;19.23;;;16.30;;
5475;SDS011;2760;50.000;9.194;2022-07-30T02:09:15;18.87;;;15.20;;
5475;SDS011;2760;50.000;9.194;2022-07-30T02:11:49;21.90;;;16.13;;
5475;SDS011;2760;50.000;9.194;2022-07-30T02:14:37;21.77;;;16.70;;
5475;SDS011;2760;50.000;9.194;2022-07-30T02:17:08;22.90;;;17.50;;
5475;SDS011;2760;50.000;9.194;2022-07-30T02:19:42;22.60;;;14.93;;
5475;SDS011;2760;50.000;9.194;2022-07-30T02:22:12;23.20;;;18.17;;
5475;SDS011;2760;50.000;9.194;2022-07-30T02:24:41;22.50;;;17.87;;
5475;SDS011;2760;50.000;9.194;2022-07-30T02:27:09;21.43;;;15.97;;
5475;SDS011;2760;50.000;9.194;2022-07-30T02:29:42;21.00;;;17.50;;
5475;SDS011;2760;50.000;9.194;2022-07-30T02:32:13;19.73;;;15.17;;
5475;SDS011;2760;50.000;9.194;2022-07-30T02:34:44;20.57;;;16.23;;
5475;SDS011;2760;50.000;9.194;2022-07-30T02:37:14;18.90;;;15.07;;
5475;SDS011;2760;50.000;9.194;2022-07-30T02:39:47;19.13;;;15.33;;
5475;SDS011;2760;50.000;9.194;2022-07-30T02:42:15;19.80;;;15.17;;
5475;SDS011;2760;50.000;9.194;2022-07-30T02:44:46;22.13;;;13.70;;
5475;SDS011;2760;50.000;9.194;2022-07-30T02:47:16;23.07;;;14.40;;
5475;SDS011;2760;50.000;9.194;2022-07-30T02:49:52;16.97;;;14.80;;
5475;SDS011;2760;50.000;9.194;2022-07-30T02:52:20;21.43;;;13.20;;
5475;SDS011;2760;50.000;9.194;2022-07-30T02:54:49;17.43;;;13.53;;
5475;SDS011;2760;50.000;9.194;2022-07-30T02:57:19;17.43;;;12.60;;
5475;SDS011;2760;50.000;9.194;2022-07-30T02:59:48;26.03;;;14.30;;
5475;SDS011;2760;50.000;9.194;2022-07-30T03:02:18;22.00;;;13.73;;
5475;SDS011;2760;50.000;9.194;2022-07-30T03:04:47;21.23;;;12.77;;
5475;SDS011;2760;50.000;9.194;2022-07-30T03:07:15;19.40;;;13.13;;
5475;SDS011;2760;50.000;9.194;2022-07-30T03:09:43;17.67;;;12.70;;
5475;SDS011;2760;50.000;9.194;2022-07-30T03:12:12;26.60;;;13.07;;
5475;SDS011;2760;50.000;9.194;2022-07-30T03:14:41;16.83;;;13.87;;
5475;SDS011;2760;50.000;9.194;2022-07-30T03:17:09;15.27;;;12.47;;
5475;SDS011;2760;50.000;9.194;2022-07-30T03:19:41;14.33;;;11.80;;
5475;SDS011;2760;50.000;9.194;2022-07-30T03:22:10;13.47;;;12.10;;
5475;SDS011;2760;50.000;9.194;2022-07-30T03:24:41;11.83;;;10.63;;
5475;SDS011;2760;50.000;9.194;2022-07-30T03:27:10;12.10;;;10.80;;
5475;SDS011;2760;50.000;9.194;2022-07-30T03:29:38;13.10;;;9.90;;
5475;SDS011;2760;50.000;9.194;2022-07-30T03:32:07;11.67;;;10.47;;
5475;SDS011;2760;50.000;9.194;2022-07-30T03:34:37;11.13;;;8.50;;
5475;SDS011;2760;50.000;9.194;2022-07-30T03:37:04;10.47;;;9.43;;
5475;SDS011;2760;50.000;9.194;2022-07-30T03:39:33;9.40;;;8.40;;
5475;SDS011;2760;50.000;9.194;2022-07-30T03:42:02;11.60;;;9.27;;
5475;SDS011;2760;50.000;9.194;2022-07-30T03:44:32;9.37;;;8.47;;
5475;SDS011;2760;50.000;9.194;2022-07-30T03:47:01;10.37;;;8.27;;
5475;SDS011;2760;50.000;9.194;2022-07-30T03:49:38;11.93;;;10.80;;
5475;SDS011;2760;50.000;9.194;2022-07-30T03:52:05;8.23;;;7.43;;
5475;SDS011;2760;50.000;9.194;2022-07-30T03:54:34;8.90;;;8.00;;
5475;SDS011;2760;50.000;9.194;2022-07-30T03:57:40;21.53;;;11.47;;
5475;SDS011;2760;50.000;9.194;2022-07-30T04:00:11;16.37;;;13.30;;
5475;SDS011;2760;50.000;9.194;2022-07-30T04:02:49;29.10;;;15.93;;
5475;SDS011;2760;50.000;9.194;2022-07-30T04:05:34;19.50;;;15.20;;
5475;SDS011;2760;50.000;9.194;2022-07-30T04:08:01;20.27;;;15.47;;
5475;SDS011;2760;50.000;9.194;2022-07-30T04:10:30;17.20;;;14.40;;
5475;SDS011;2760;50.000;9.194;2022-07-30T04:12:57;22.00;;;17.70;;
5475;SDS011;2760;50.000;9.194;2022-07-30T04:15:25;25.90;;;17.50;;
5475;SDS011;2760;50.000;9.194;2022-07-30T04:17:55;19.87;;;15.77;;
5475;SDS011;2760;50.000;9.194;2022-07-30T04:20:28;39.43;;;16.37;;
5475;SDS011;2760;50.000;9.194;2022-07-30T04:23:01;27.50;;;18.03;;
5475;SDS011;2760;50.000;9.194;2022-07-30T04:25:29;22.50;;;15.97;;
5475;SDS011;2760;50.000;9.194;2022-07-30T04:27:57;26.50;;;18.50;;
5475;SDS011;2760;50.000;9.194;2022-07-30T04:30:24;32.17;;;18.07;;
5475;SDS011;2760;50.000;9.194;2022-07-30T04:32:51;25.17;;;17.10;;
5475;SDS011;2760;50.000;9.194;2022-07-30T04:35:41;25.77;;;17.83;;
5475;SDS011;2760;50.000;9.194;2022-07-30T04:38:17;23.80;;;17.80;;
5475;SDS011;2760;50.000;9.194;2022-07-30T04:40:49;28.77;;;19.13;;
5475;SDS011;2760;50.000;9.194;2022-07-30T04:43:16;26.83;;;20.10;;
5475;SDS011;2760;50.000;9.194;2022-07-30T04:45:43;29.03;;;18.00;;
5475;SDS011;2760;50.000;9.194;2022-07-30T04:48:10;34.23;;;20.50;;
5475;SDS011;2760;50.000;9.194;2022-07-30T04:50:41;25.67;;;18.30;;
5475;SDS011;2760;50.000;9.194;2022-07-30T04:53:16;25.73;;;18.70;;
5475;SDS011;2760;50.000;9.194;2022-07-30T04:55:52;26.00;;;18.83;;
5475;SDS011;2760;50.000;9.194;2022-07-30T04:58:23;25.07;;;17.67;;
5475;SDS011;2760;50.000;9.194;2022-07-30T05:00:52;19.03;;;14.93;;
5475;SDS011;2760;50.000;9.194;2022-07-30T05:03:25;15.37;;;11.83;;
5475;SDS011;2760;50.000;9.194;2022-07-30T05:05:54;21.13;;;13.60;;
5475;SDS011;2760;50.000;9.194;2022-07-30T05:08:23;20.10;;;15.60;;
5475;SDS011;2760;50.000;9.194;2022-07-30T05:10:51;18.97;;;14.63;;
5475;SDS011;2760;50.000;9.194;2022-07-30T05:13:19;28.60;;;15.67;;
5475;SDS011;2760;50.000;9.194;2022-07-30T05:15:46;22.67;;;14.70;;
5475;SDS011;2760;50.000;9.194;2022-07-30T05:18:16;25.97;;;17.00;;
5475;SDS011;2760;50.000;9.194;2022-07-30T05:20:45;21.57;;;16.87;;
5475;SDS011;2760;50.000;9.194;2022-07-30T05:23:20;32.40;;;17.97;;
5475;SDS011;2760;50.000;9.194;2022-07-30T05:26:09;28.50;;;17.90;;
5475;SDS011;2760;50.000;9.194;2022-07-30T05:28:43;31.37;;;18.93;;
5475;SDS011;2760;50.000;9.194;2022-07-30T05:31:12;29.77;;;17.67;;
5475;SDS011;2760;50.000;9.194;2022-07-30T05:33:44;30.00;;;19.00;;
5475;SDS011;2760;50.000;9.194;2022-07-30T05:36:15;25.37;;;18.50;;
5475;SDS011;2760;50.000;9.194;2022-07-30T05:38:42;31.50;;;17.70;;
5475;SDS011;2760;50.000;9.194;2022-07-30T05:41:49;31.50;;;19.00;;
5475;SDS011;2760;50.000;9.194;2022-07-30T05:44:20;28.50;;;17.57;;
5475;SDS011;2760;50.000;9.194;2022-07-30T05:46:47;32.93;;;18.40;;
5475;SDS011;2760;50.000;9.194;2022-07-30T05:49:15;25.27;;;16.87;;
5475;SDS011;2760;50.000;9.194;2022-07-30T05:51:42;27.87;;;17.20;;
5475;SDS011;2760;50.000;9.194;2022-07-30T05:54:09;28.53;;;19.00;;
5475;SDS011;2760;50.000;9.194;2022-07-30T05:56:51;28.53;;;18.10;;
5475;SDS011;2760;50.000;9.194;2022-07-30T05:59:29;36.67;;;19.73;;
5475;SDS011;2760;50.000;9.194;2022-07-30T06:02:16;31.87;;;20.70;;
5475;SDS011;2760;50.000;9.194;2022-07-30T06:05:15;34.83;;;20.10;;
5475;SDS011;2760;50.000;9.194;2022-07-30T06:07:43;31.77;;;18.63;;
5475;SDS011;2760;50.000;9.194;2022-07-30T06:10:11;35.13;;;19.73;;
5475;SDS011;2760;50.000;9.194;2022-07-30T06:12:39;30.27;;;18.60;;
5475;SDS011;2760;50.000;9.194;2022-07-30T06:15:08;29.37;;;19.67;;
5475;SDS011;2760;50.000;9.194;2022-07-30T06:17:41;29.73;;;19.93;;
5475;SDS011;2760;50.000;9.194;2022-07-30T06:20:25;33.93;;;20.90;;
5475;SDS011;2760;50.000;9.194;2022-07-30T06:23:15;32.90;;;20.43;;
5475;SDS011;2760;50.000;9.194;2022-07-30T06:25:56;35.43;;;22.27;;
5475;SDS011;2760;50.000;9.194;2022-07-30T06:28:24;34.43;;;21.33;;
5475;SDS011;2760;50.000;9.194;2022-07-30T06:30:51;33.13;;;20.33;;
5475;SDS011;2760;50.000;9.194;2022-07-30T06:33:21;33.53;;;22.60;;
5475;SDS011;2760;50.000;9.194;2022-07-30T06:35:48;36.93;;;22.27;;
5475;SDS011;2760;50.000;9.194;2022-07-30T06:38:19;34.47;;;21.73;;
5475;SDS011;2760;50.000;9.194;2022-07-30T06:40:56;31.87;;;21.60;;
5475;SDS011;2760;50.000;9.194;2022-07-30T06:43:44;33.80;;;22.80;;
5475;SDS011;2760;50.000;9.194;2022-07-30T06:46:37;33.60;;;22.80;;
5475;SDS011;2760;50.000;9.194;2022-07-30T06:49:04;41.03;;;24.87;;
5475;SDS011;2760;50.000;9.194;2022-07-30T06:51:32;41.97;;;25.80;;
5475;SDS011;2760;50.000;9.194;2022-07-30T06:53:59;37.43;;;23.60;;
5475;SDS011;2760;50.000;9.194;2022-07-30T06:56:35;42.53;;;26.40;;
5475;SDS011;2760;50.000;9.194;2022-07-30T06:59:06;38.93;;;25.57;;
5475;SDS011;2760;50.000;9.194;2022-07-30T07:01:51;40.07;;;25.63;;
5475;SDS011;2760;50.000;9.194;2022-07-30T07:04:19;37.13;;;23.50;;
5475;SDS011;2760;50.000;9.194;2022-07-30T07:06:47;37.73;;;25.20;;
5475;SDS011;2760;50.000;9.194;2022-07-30T07:09:23;38.60;;;25.57;;
5475;SDS011;2760;50.000;9.194;2022-07-30T07:12:10;33.07;;;24.00;;
5475;SDS011;2760;50.000;9.194;2022-07-30T07:14:43;32.97;;;23.40;;
5475;SDS011;2760;50.000;9.194;2022-07-30T07:17:11;32.20;;;23.73;;
5475;SDS011;2760;50.000;9.194;2022-07-30T07:20:04;36.77;;;25.07;;
5475;SDS011;2760;50.000;9.194;2022-07-30T07:22:44;36.27;;;23.93;;
5475;SDS011;2760;50.000;9.194;2022-07-30T07:25:11;36.40;;;25.53;;
5475;SDS011;2760;50.000;9.194;2022-07-30T07:27:40;33.03;;;23.97;;
5475;SDS011;2760;50.000;9.194;2022-07-30T07:30:09;39.17;;;26.10;;
5475;SDS011;2760;50.000;9.194;2022-07-30T07:32:36;35.97;;;27.63;;
5475;SDS011;2760;50.000;9.194;2022-07-30T07:35:03;32.70;;;25.23;;
5475;SDS011;2760;50.000;9.194;2022-07-30T07:37:33;37.43;;;26.47;;
5475;SDS011;2760;50.000;9.194;2022-07-30T07:40:01;35.00;;;27.00;;
5475;SDS011;2760;50.000;9.194;2022-07-30T07:42:32;28.90;;;24.33;;
5475;SDS011;2760;50.000;9.194;2022-07-30T07:44:59;28.67;;;25.37;;
5475;SDS011;2760;50.000;9.194;2022-07-30T07:47:42;31.03;;;24.83;;
5475;SDS011;2760;50.000;9.194;2022-07-30T07:50:16;28.90;;;23.90;;
5475;SDS011;2760;50.000;9.194;2022-07-30T07:52:44;28.83;;;22.80;;
5475;SDS011;2760;50.000;9.194;2022-07-30T07:55:12;27.07;;;21.67;;
5475;SDS011;2760;50.000;9.194;2022-07-30T07:57:39;27.27;;;22.27;;
5475;SDS011;2760;50.000;9.194;2022-07-30T08:00:10;27.93;;;24.70;;
5475;SDS011;2760;50.000;9.194;2022-07-30T08:02:45;27.50;;;22.43;;
5475;SDS011;2760;50.000;9.194;2022-07-30T08:05:13;24.73;;;21.10;;
5475;SDS011;2760;50.000;9.194;2022-07-30T08:07:57;23.87;;;20.87;;
5475;SDS011;2760;50.000;9.194;2022-07-30T08:10:56;20.87;;;17.70;;
5475;SDS011;2760;50.000;9.194;2022-07-30T08:13:46;21.73;;;18.30;;
5475;SDS011;2760;50.000;9.194;2022-07-30T08:16:32;24.77;;;17.87;;
5475;SDS011;2760;50.000;9.194;2022-07-30T08:19:19;20.03;;;18.03;;
5475;SDS011;2760;50.000;9.194;2022-07-30T08:21:54;20.17;;;18.13;;
5475;SDS011;2760;50.000;9.194;2022-07-30T08:24:27;19.57;;;17.50;;
5475;SDS011;2760;50.000;9.194;2022-07-30T08:26:55;18.00;;;16.20;;
5475;SDS011;2760;50.000;9.194;2022-07-30T08:29:23;19.00;;;16.50;;
5475;SDS011;2760;50.000;9.194;2022-07-30T08:31:50;17.27;;;15.43;;
5475;SDS011;2760;50.000;9.194;2022-07-30T08:34:21;17.13;;;15.13;;
5475;SDS011;2760;50.000;9.194;2022-07-30T08:36:49;13.70;;;12.30;;
5475;SDS011;2760;50.000;9.194;2022-07-30T08:39:16;14.80;;;13.27;;
5475;SDS011;2760;50.000;9.194;2022-07-30T08:41:43;12.60;;;11.30;;
5475;SDS011;2760;50.000;9.194;2022-07-30T08:44:11;12.23;;;11.03;;
5475;SDS011;2760;50.000;9.194;2022-07-30T08:46:40;11.83;;;10.20;;
5475;SDS011;2760;50.000;9.194;2022-07-30T08:49:25;11.40;;;10.30;;
5475;SDS011;2760;50.000;9.194;2022-07-30T08:51:53;11.80;;;10.00;;
5475;SDS011;2760;50.000;9.194;2022-07-30T08:54:36;10.33;;;9.23;;
5475;SDS011;2760;50.000;9.194;2022-07-30T08:57:03;12.13;;;10.93;;
5475;SDS011;2760;50.000;9.194;2022-07-30T08:59:34;11.47;;;10.27;;
5475;SDS011;2760;50.000;9.194;2022-07-30T09:02:03;10.80;;;9.70;;
5475;SDS011;2760;50.000;9.194;2022-07-30T09:04:36;10.70;;;9.60;;
5475;SDS011;2760;50.000;9.194;2022-07-30T09:07:03;11.83;;;9.90;;
5475;SDS011;2760;50.000;9.194;2022-07-30T09:09:30;16.73;;;9.00;;
5475;SDS011;2760;50.000;9.194;2022-07-30T09:11:58;8.40;;;7.53;;
5475;SDS011;2760;50.000;9.194;2022-07-30T09:14:25;11.20;;;8.20;;
5475;SDS011;2760;50.000;9.194;2022-07-30T09:16:54;8.30;;;7.50;;
5475;SDS011;2760;50.000;9.194;2022-07-30T09:19:22;9.00;;;8.10;;
5475;SDS011;2760;50.000;9.194;2022-07-30T09:21:57;8.70;;;7.77;;
5475;SDS011;2760;50.000;9.194;2022-07-30T09:24:51;7.23;;;6.53;;
5475;SDS011;2760;50.000;9.194;2022-07-30T09:27:43;7.53;;;6.80;;
5475;SDS011;2760;50.000;9.194;2022-07-30T09:30:43;7.80;;;6.33;;
5475;SDS011;2760;50.000;9.194;2022-07-30T09:33:32;6.83;;;6.10;;
5475;SDS011;2760;50.000;9.194;2022-07-30T09:36:24;6.80;;;5.97;;
5475;SDS011;2760;50.000;9.194;2022-07-30T09:39:28;8.30;;;6.73;;
5475;SDS011;2760;50.000;9.194;2022-07-30T09:42:15;6.77;;;6.07;;
5475;SDS011;2760;50.000;9.194;2022-07-30T09:44:43;9.57;;;6.30;;
5475;SDS011;2760;50.000;9.194;2022-07-30T09:47:13;9.40;;;6.63;;
5475;SDS011;2760;50.000;9.194;2022-07-30T09:50:00;6.53;;;5.20;;
5475;SDS011;2760;50.000;9.194;2022-07-30T09:52:30;10.43;;;6.53;;
5475;SDS011;2760;50.000;9.194;2022-07-30T09:54:58;5.77;;;5.10;;
5475;SDS011;2760;50.000;9.194;2022-07-30T09:57:27;27.73;;;7.70;;
5475;SDS011;2760;50.000;9.194;2022-07-30T10:00:18;6.13;;;5.60;;
5475;SDS011;2760;50.000;9.194;2022-07-30T10:02:55;7.13;;;6.47;;
5475;SDS011;2760;50.000;9.194;2022-07-30T10:05:50;5.53;;;5.00;;
5475;SDS011;2760;50.000;9.194;2022-07-30T10:08:18;7.97;;;5.87;;
5475;SDS011;2760;50.000;9.194;2022-07-30T10:10:47;8.07;;;5.53;;
5475;SDS011;2760;50.000;9.194;2022-07-30T10:13:14;8.30;;;6.83;;
5475;SDS011;2760;50.000;9.194;2022-07-30T10:15:44;7.20;;;6.23;;
5475;SDS011;2760;50.000;9.194;2022-07-30T10:18:12;9.23;;;6.80;;
5475;SDS011;2760;50.000;9.194;2022-07-30T10:20:58;6.63;;;6.00;;
5475;SDS011;2760;50.000;9.194;2022-07-30T10:24:06;7.87;;;6.63;;
5475;SDS011;2760;50.000;9.194;2022-07-30T10:27:05;7.27;;;6.13;;
5475;SDS011;2760;50.000;9.194;2022-07-30T10:30:04;7.83;;;7.03;;
5475;SDS011;2760;50.000;9.194;2022-07-30T10:32:31;8.37;;;5.90;;
5475;SDS011;2760;50.000;9.194;2022-07-30T10:35:00;6.90;;;5.53;;
5475;SDS011;2760;50.000;9.194;2022-07-30T10:37:28;6.33;;;5.57;;
5475;SDS011;2760;50.000;9.194;2022-07-30T10:39:59;5.63;;;4.47;;
5475;SDS011;2760;50.000;9.194;2022-07-30T10:42:45;5.97;;;5.47;;
5475;SDS011;2760;50.000;9.194;2022-07-30T10:45:25;4.97;;;4.53;;
5475;SDS011;2760;50.000;9.194;2022-07-30T10:48:02;6.73;;;5.07;;
5475;SDS011;2760;50.000;9.194;2022-07-30T10:50:30;6.10;;;5.57;;
5475;SDS011;2760;50.000;9.194;2022-07-30T10:52:58;4.90;;;4.40;;
5475;SDS011;2760;50.000;9.194;2022-07-30T10:55:27;6.13;;;4.70;;
5475;SDS011;2760;50.000;9.194;2022-07-30T10:57:58;6.67;;;5.30;;
5475;SDS011;2760;50.000;9.194;2022-07-30T11:00:26;13.87;;;6.77;;
5475;SDS011;2760;50.000;9.194;2022-07-30T11:03:11;10.43;;;6.20;;
5475;SDS011;2760;50.000;9.194;2022-07-30T11:05:48;8.33;;;6.70;;
5475;SDS011;2760;50.000;9.194;2022-07-30T11:08:28;7.77;;;5.93;;
5475;SDS011;2760;50.000;9.194;2022-07-30T11:10:57;9.67;;;6.60;;
5475;SDS011;2760;50.000;9.194;2022-07-30T11:16:16;7.77;;;5.80;;
5475;SDS011;2760;50.000;9.194;2022-07-30T11:19:04;7.60;;;5.77;;
5475;SDS011;2760;50.000;9.194;2022-07-30T11:21:32;6.93;;;6.30;;
5475;SDS011;2760;50.000;9.194;2022-07-30T11:24:00;6.10;;;5.60;;
5475;SDS011;2760;50.000;9.194;2022-07-30T11:26:45;9.03;;;6.10;;
5475;SDS011;2760;50.000;9.194;2022-07-30T11:29:37;7.70;;;5.37;;
5475;SDS011;2760;50.000;9.194;2022-07-30T11:35:10;6.37;;;5.77;;
5475;SDS011;2760;50.000;9.194;2022-07-30T11:37:57;7.00;;;6.30;;
5475;SDS011;2760;50.000;9.194;2022-07-30T11:40:28;6.03;;;5.20;;
5475;SDS011;2760;50.000;9.194;2022-07-30T11:45:45;12.63;;;5.50;;
5475;SDS011;2760;50.000;9.194;2022-07-30T11:48:13;7.60;;;5.83;;
5475;SDS011;2760;50.000;9.194;2022-07-30T11:50:44;5.30;;;4.80;;
5475;SDS011;2760;50.000;9.194;2022-07-30T11:53:13;4.60;;;4.20;;
5475;SDS011;2760;50.000;9.194;2022-07-30T11:55:43;7.93;;;5.30;;
5475;SDS011;2760;50.000;9.194;2022-07-30T11:58:22;9.80;;;6.20;;
5475;SDS011;2760;50.000;9.194;2022-07-30T12:00:54;5.80;;;4.70;;
5475;SDS011;2760;50.000;9.194;2022-07-30T12:03:23;6.37;;;4.90;;
5475;SDS011;2760;50.000;9.194;2022-07-30T12:05:56;23.60;;;5.90;;
5475;SDS011;2760;50.000;9.194;2022-07-30T12:08:35;6.30;;;5.70;;
5475;SDS011;2760;50.000;9.194;2022-07-30T12:11:05;6.87;;;5.03;;
5475;SDS011;2760;50.000;9.194;2022-07-30T12:13:32;7.37;;;5.27;;
5475;SDS011;2760;50.000;9.194;2022-07-30T12:16:02;7.07;;;6.17;;
5475;SDS011;2760;50.000;9.194;2022-07-30T12:18:33;5.20;;;4.73;;
5475;SDS011;2760;50.000;9.194;2022-07-30T12:21:00;5.93;;;5.33;;
5475;SDS011;2760;50.000;9.194;2022-07-30T12:23:29;7.63;;;4.73;;
5475;SDS011;2760;50.000;9.194;2022-07-30T12:25:57;5.07;;;4.57;;
5475;SDS011;2760;50.000;9.194;2022-07-30T12:28:25;6.73;;;5.93;;
5475;SDS011;2760;50.000;9.194;2022-07-30T12:30:53;5.43;;;4.93;;
5475;SDS011;2760;50.000;9.194;2022-07-30T12:33:23;10.33;;;7.10;;
5475;SDS011;2760;50.000;9.194;2022-07-30T12:35:52;4.67;;;4.23;;
5475;SDS011;2760;50.000;9.194;2022-07-30T12:38:22;6.30;;;4.90;;
5475;SDS011;2760;50.000;9.194;2022-07-30T12:40:54;12.80;;;4.90;;
5475;SDS011;2760;50.000;9.194;2022-07-30T12:43:40;7.80;;;5.10;;
5475;SDS011;2760;50.000;9.194;2022-07-30T12:46:08;7.67;;;4.43;;
5475;SDS011;2760;50.000;9.194;2022-07-30T12:48:37;9.30;;;4.67;;
5475;SDS011;2760;50.000;9.194;2022-07-30T12:51:13;4.73;;;4.33;;
5475;SDS011;2760;50.000;9.194;2022-07-30T12:53:40;5.70;;;5.10;;
5475;SDS011;2760;50.000;9.194;2022-07-30T12:56:10;5.87;;;4.33;;
5475;SDS011;2760;50.000;9.194;2022-07-30T12:58:39;5.27;;;4.27;;
5475;SDS011;2760;50.000;9.194;2022-07-30T13:01:07;7.00;;;4.63;;
5475;SDS011;2760;50.000;9.194;2022-07-30T13:03:36;8.83;;;4.20;;
5475;SDS011;2760;50.000;9.194;2022-07-30T13:06:11;7.67;;;4.47;;
5475;SDS011;2760;50.000;9.194;2022-07-30T13:08:47;5.70;;;4.03;;
5475;SDS011;2760;50.000;9.194;2022-07-30T13:11:19;6.00;;;4.40;;
5475;SDS011;2760;50.000;9.194;2022-07-30T13:13:46;5.10;;;3.70;;
5475;SDS011;2760;50.000;9.194;2022-07-30T13:16:14;3.67;;;3.40;;
5475;SDS011;2760;50.000;9.194;2022-07-30T13:18:43;5.43;;;3.90;;
5475;SDS011;2760;50.000;9.194;2022-07-30T13:21:10;11.30;;;3.90;;
5475;SDS011;2760;50.000;9.194;2022-07-30T13:23:38;5.57;;;3.33;;
5475;SDS011;2760;50.000;9.194;2022-07-30T13:26:07;4.23;;;3.10;;
5475;SDS011;2760;50.000;9.194;2022-07-30T13:28:35;3.40;;;3.10;;
5475;SDS011;2760;50.000;9.194;2022-07-30T13:31:02;4.90;;;3.20;;
5475;SDS011;2760;50.000;9.194;2022-07-30T13:33:29;3.53;;;3.03;;
5475;SDS011;2760;50.000;9.194;2022-07-30T13:35:58;4.43;;;3.33;;
5475;SDS011;2760;50.000;9.194;2022-07-30T13:38:25;3.70;;;3.40;;
5475;SDS011;2760;50.000;9.194;2022-07-30T13:40:53;6.70;;;3.43;;
5475;SDS011;2760;50.000;9.194;2022-07-30T13:43:20;4.03;;;3.70;;
5475;SDS011;2760;50.000;9.194;2022-07-30T13:45:48;5.73;;;3.80;;
5475;SDS011;2760;50.000;9.194;2022-07-30T13:48:15;3.40;;;3.10;;
5475;SDS011;2760;50.000;9.194;2022-07-30T13:50:42;6.30;;;3.30;;
5475;SDS011;2760;50.000;9.194;2022-07-30T13:53:13;5.17;;;3.80;;
5475;SDS011;2760;50.000;9.194;2022-07-30T13:55:40;3.80;;;3.40;;
5475;SDS011;2760;50.000;9.194;2022-07-30T13:58:08;8.77;;;3.90;;
5475;SDS011;2760;50.000;9.194;2022-07-30T14:00:35;3.20;;;2.90;;
5475;SDS011;2760;50.000;9.194;2022-07-30T14:03:05;4.10;;;3.30;;
5475;SDS011;2760;50.000;9.194;2022-07-30T14:05:33;2.90;;;2.60;;
5475;SDS011;2760;50.000;9.194;2022-07-30T14:08:01;3.63;;;2.80;;
5475;SDS011;2760;50.000;9.194;2022-07-30T14:10:30;3.07;;;2.83;;
5475;SDS011;2760;50.000;9.194;2022-07-30T14:12:59;3.07;;;2.77;;
5475;SDS011;2760;50.000;9.194;2022-07-30T14:15:27;3.23;;;2.93;;
5475;SDS011;2760;50.000;9.194;2022-07-30T14:17:56;3.10;;;2.87;;
5475;SDS011;2760;50.000;9.194;2022-07-30T14:20:24;2.80;;;2.60;;
5475;SDS011;2760;50.000;9.194;2022-07-30T14:22:51;4.20;;;3.33;;
5475;SDS011;2760;50.000;9.194;2022-07-30T14:25:18;3.40;;;2.93;;
5475;SDS011;2760;50.000;9.194;2022-07-30T14:27:48;3.83;;;3.00;;
5475;SDS011;2760;50.000;9.194;2022-07-30T14:30:15;3.30;;;3.10;;
5475;SDS011;2760;50.000;9.194;2022-07-30T14:32:42;5.50;;;3.30;;
5475;SDS011;2760;50.000;9.194;2022-07-30T14:35:10;4.73;;;2.90;;
5475;SDS011;2760;50.000;9.194;2022-07-30T14:37:38;2.90;;;2.60;;
5475;SDS011;2760;50.000;9.194;2022-07-30T14:40:05;3.03;;;2.80;;
5475;SDS011;2760;50.000;9.194;2022-07-30T14:42:35;3.00;;;2.70;;
5475;SDS011;2760;50.000;9.194;2022-07-30T14:45:06;2.87;;;2.67;;
5475;SDS011;2760;50.000;9.194;2022-07-30T14:47:35;3.47;;;3.07;;
5475;SDS011;2760;50.000;9.194;2022-07-30T14:50:02;2.83;;;2.63;;
5475;SDS011;2760;50.000;9.194;2022-07-30T14:52:29;4.40;;;3.20;;
5475;SDS011;2760;50.000;9.194;2022-07-30T14:54:59;2.67;;;2.30;;
5475;SDS011;2760;50.000;9.194;2022-07-30T14:57:26;4.77;;;2.87;;
5475;SDS011;2760;50.000;9.194;2022-07-30T14:59:53;2.87;;;2.63;;
5475;SDS011;2760;50.000;9.194;2022-07-30T15:02:21;3.33;;;3.07;;
5475;SDS011;2760;50.000;9.194;2022-07-30T15:04:48;2.63;;;2.53;;
5475;SDS011;2760;50.000;9.194;2022-07-30T15:07:16;4.17;;;3.33;;
5475;SDS011;2760;50.000;9.194;2022-07-30T15:09:43;3.17;;;2.97;;
5475;SDS011;2760;50.000;9.194;2022-07-30T15:12:10;3.30;;;3.00;;
5475;SDS011;2760;50.000;9.194;2022-07-30T15:14:40;3.00;;;2.67;;
5475;SDS011;2760;50.000;9.194;2022-07-30T15:17:09;7.53;;;3.50;;
5475;SDS011;2760;50.000;9.194;2022-07-30T15:19:39;4.13;;;2.77;;
5475;SDS011;2760;50.000;9.194;2022-07-30T15:22:06;4.00;;;2.80;;
5475;SDS011;2760;50.000;9.194;2022-07-30T15:24:34;4.83;;;2.73;;
5475;SDS011;2760;50.000;9.194;2022-07-30T15:27:01;6.20;;;3.43;;
5475;SDS011;2760;50.000;9.194;2022-07-30T15:29:28;3.67;;;2.70;;
5475;SDS011;2760;50.000;9.194;2022-07-30T15:31:56;2.93;;;2.73;;
5475;SDS011;2760;50.000;9.194;2022-07-30T15:34:24;5.37;;;3.07;;
5475;SDS011;2760;50.000;9.194;2022-07-30T15:36:53;3.43;;;3.13;;